createdAt,value
2017-12-31T00:05:23.001Z,8.9
2017-12-31T00:15:15.553Z,8.9
2017-12-31T00:20:07.974Z,8.9
2017-12-31T00:25:20.867Z,8.9
2017-12-31T00:30:05.719Z,9.1
2017-12-31T00:35:07.499Z,9
2017-12-31T00:40:20.916Z,9
2017-12-31T00:45:17.648Z,9
2017-12-31T00:50:02.920Z,9
2017-12-31T00:55:08.297Z,8.9
2017-12-31T01:00:22.716Z,8.9
2017-12-31T01:05:07.832Z,8.8
2017-12-31T01:10:25.262Z,8.8
2017-12-31T01:15:10.111Z,8.8
2017-12-31T01:20:15.211Z,8.7
2017-12-31T01:25:10.414Z,8.7
2017-12-31T01:30:02.616Z,8.7
2017-12-31T01:35:13.112Z,8.7
2017-12-31T01:40:05.469Z,8.6
2017-12-31T01:45:05.614Z,8.6
2017-12-31T01:50:25.684Z,8.6
2017-12-31T01:55:13.096Z,8.5
2017-12-31T02:00:08.396Z,8.5
2017-12-31T02:10:08.208Z,8.3
2017-12-31T02:20:02.573Z,8.3
2017-12-31T02:25:15.443Z,8.3
2017-12-31T02:30:30.509Z,8.2
2017-12-31T02:35:07.792Z,8.2
2017-12-31T02:40:20.198Z,8.2
2017-12-31T02:55:13.272Z,8
2017-12-31T03:00:17.752Z,8
2017-12-31T03:05:10.449Z,7.9
2017-12-31T03:10:18.318Z,7.8
2017-12-31T03:15:08.384Z,7.8
2017-12-31T03:20:18.072Z,7.8
2017-12-31T03:25:05.664Z,7.7
2017-12-31T03:30:25.683Z,7.7
2017-12-31T03:35:35.782Z,7.7
2017-12-31T03:40:35.412Z,7.6
2017-12-31T03:45:07.727Z,7.6
2017-12-31T03:55:20.867Z,7.4
2017-12-31T04:00:05.657Z,7.4
2017-12-31T04:05:37.900Z,7.3
2017-12-31T04:10:02.640Z,7.3
2017-12-31T04:15:02.820Z,7.2
2017-12-31T04:20:23.441Z,7
2017-12-31T04:25:17.553Z,7
2017-12-31T04:30:02.817Z,7
2017-12-31T04:35:05.699Z,6.9
2017-12-31T04:40:30.207Z,6.8
2017-12-31T04:45:02.428Z,6.8
2017-12-31T04:50:15.428Z,6.7
2017-12-31T05:00:03.228Z,6.8
2017-12-31T05:10:15.920Z,6.7
2017-12-31T05:20:20.385Z,6.6
2017-12-31T05:30:03.070Z,6.6
2017-12-31T05:35:31.122Z,6.8
2017-12-31T05:40:15.474Z,6.8
2017-12-31T05:45:05.513Z,6.8
2017-12-31T05:50:25.495Z,6.8
2017-12-31T05:55:10.340Z,6.9
2017-12-31T06:05:10.239Z,6.9
2017-12-31T06:10:20.758Z,6.9
2017-12-31T06:15:05.846Z,6.9
2017-12-31T06:20:13.331Z,6.9
2017-12-31T06:25:05.018Z,7
2017-12-31T06:30:07.687Z,7
2017-12-31T06:35:05.577Z,7
2017-12-31T06:40:03.327Z,7
2017-12-31T06:45:12.619Z,7.1
2017-12-31T06:50:04.936Z,7.2
2017-12-31T06:55:07.705Z,7.2
2017-12-31T07:00:08.053Z,7.3
2017-12-31T07:05:28.436Z,7.3
2017-12-31T07:15:03.329Z,7.4
2017-12-31T07:25:28.223Z,7.4
2017-12-31T07:30:10.081Z,7.4
2017-12-31T07:35:05.257Z,7.4
2017-12-31T07:40:21.043Z,7.4
2017-12-31T07:45:07.648Z,7.5
2017-12-31T07:55:23.388Z,7.5
2017-12-31T08:00:15.323Z,7.6
2017-12-31T08:05:02.926Z,7.6
2017-12-31T08:10:35.684Z,7.6
2017-12-31T08:20:36.099Z,7.6
2017-12-31T08:25:04.927Z,7.6
2017-12-31T08:30:10.876Z,7.6
2017-12-31T08:35:20.137Z,7.6
2017-12-31T08:40:13.091Z,7.6
2017-12-31T08:45:28.606Z,7.7
2017-12-31T08:55:02.439Z,7.8
2017-12-31T09:00:35.659Z,7.9
2017-12-31T09:10:22.845Z,8
2017-12-31T09:15:18.149Z,8
2017-12-31T09:20:10.174Z,8.1
2017-12-31T09:35:28.570Z,8.2
2017-12-31T09:40:26.034Z,8.1
2017-12-31T09:45:21.050Z,8
2017-12-31T09:50:05.894Z,8
2017-12-31T09:55:15.176Z,7.9
2017-12-31T10:00:32.839Z,7.9
2017-12-31T10:10:18.025Z,7.9
2017-12-31T10:20:09.983Z,8
2017-12-31T10:25:32.916Z,8.1
2017-12-31T10:30:03.138Z,8.1
2017-12-31T10:35:07.499Z,8.2
2017-12-31T10:40:28.583Z,8.4
2017-12-31T10:45:33.228Z,8.5
2017-12-31T10:50:05.014Z,8.7
2017-12-31T10:55:05.279Z,8.9
2017-12-31T11:05:38.100Z,9.2
2017-12-31T11:10:38.281Z,9.3
2017-12-31T11:15:20.216Z,9.4
2017-12-31T11:20:05.105Z,9.5
2017-12-31T11:25:25.716Z,9.5
2017-12-31T11:35:13.270Z,9.8
2017-12-31T11:40:25.805Z,9.8
2017-12-31T11:50:20.944Z,10
2017-12-31T11:55:17.737Z,10.1
2017-12-31T12:00:05.629Z,10.2
2017-12-31T12:05:09.964Z,10.4
2017-12-31T12:10:10.255Z,10.5
2017-12-31T12:15:10.703Z,10.6
2017-12-31T12:20:33.418Z,10.8
2017-12-31T12:30:05.510Z,11
2017-12-31T12:40:02.970Z,11
2017-12-31T12:45:03.250Z,11.1
2017-12-31T12:50:07.690Z,11.2
2017-12-31T12:55:25.604Z,11.2
2017-12-31T13:00:08.013Z,11.3
2017-12-31T13:05:33.503Z,4.9
2017-12-31T13:10:10.884Z,11.4
2017-12-31T13:15:35.425Z,11.4
2017-12-31T13:20:02.850Z,11.4
2017-12-31T13:35:02.570Z,11.5
2017-12-31T13:40:10.956Z,11.6
2017-12-31T13:45:07.651Z,11.6
2017-12-31T13:50:23.265Z,11.6
2017-12-31T14:00:17.702Z,11.7
2017-12-31T14:05:07.841Z,11.8
2017-12-31T14:10:10.176Z,11.8
2017-12-31T14:15:02.866Z,11.7
2017-12-31T14:20:05.756Z,11.8
2017-12-31T14:25:15.201Z,11.7
2017-12-31T14:30:15.101Z,11.8
2017-12-31T14:40:12.636Z,11.8
2017-12-31T14:45:30.612Z,11.8
2017-12-31T14:50:23.113Z,11.7
2017-12-31T14:55:03.240Z,11.8
2017-12-31T15:00:12.766Z,11.7
2017-12-31T15:05:07.810Z,11.7
2017-12-31T15:10:20.454Z,11.8
2017-12-31T15:15:08.039Z,11.7
2017-12-31T15:20:02.456Z,11.7
2017-12-31T15:25:17.836Z,11.7
2017-12-31T15:35:26.037Z,11.6
2017-12-31T15:40:28.217Z,11.6
2017-12-31T15:45:02.539Z,11.6
2017-12-31T15:50:20.730Z,11.5
2017-12-31T15:55:18.382Z,11.4
2017-12-31T16:00:02.791Z,11.4
2017-12-31T16:05:08.139Z,11.5
2017-12-31T16:10:28.203Z,11.5
2017-12-31T16:15:10.111Z,11.4
2017-12-31T16:25:10.154Z,11.5
2017-12-31T16:30:05.089Z,11.4
2017-12-31T16:35:05.387Z,9.9
2017-12-31T16:40:31.057Z,11.6
2017-12-31T16:45:25.106Z,11.8
2017-12-31T16:50:17.560Z,11.9
2017-12-31T16:55:05.286Z,11.9
2017-12-31T17:00:02.519Z,11.9
2017-12-31T17:10:07.520Z,12
2017-12-31T17:15:07.817Z,12.1
2017-12-31T17:25:15.108Z,12.1
2017-12-31T17:40:10.909Z,12.2
2017-12-31T17:45:20.366Z,12.2
2017-12-31T17:50:38.019Z,12.2
2017-12-31T17:55:08.357Z,12.2
2017-12-31T18:00:02.677Z,12.2
2017-12-31T18:05:08.079Z,12.1
2017-12-31T18:10:07.847Z,12
2017-12-31T18:20:23.559Z,11.8
2017-12-31T18:25:02.583Z,11.8
2017-12-31T18:30:02.850Z,11.8
2017-12-31T18:40:02.940Z,11.7
2017-12-31T18:45:26.087Z,11.6
2017-12-31T18:50:20.069Z,11.6
2017-12-31T18:55:12.857Z,11.5
2017-12-31T19:00:10.717Z,11.5
2017-12-31T19:05:02.431Z,11.5
2017-12-31T19:10:13.358Z,11.5
2017-12-31T19:15:32.889Z,11.4
2017-12-31T19:20:03.319Z,11.4
2017-12-31T19:25:20.185Z,11.4
2017-12-31T19:30:20.185Z,11.4
2017-12-31T19:35:10.364Z,11.3
2017-12-31T19:40:30.991Z,11.3
2017-12-31T19:45:10.886Z,11.3
2017-12-31T19:50:03.170Z,11.3
2017-12-31T19:55:20.578Z,11.3
2017-12-31T20:00:28.226Z,11.4
2017-12-31T20:05:10.114Z,11.4
2017-12-31T20:10:05.455Z,11.3
2017-12-31T20:15:18.419Z,11.4
2017-12-31T20:20:05.356Z,11.4
2017-12-31T20:25:20.858Z,11.3
2017-12-31T20:30:20.824Z,11.4
2017-12-31T20:35:02.390Z,11.4
2017-12-31T20:40:20.997Z,11.3
2017-12-31T20:55:20.743Z,11.4
2017-12-31T21:05:18.551Z,11.5
2017-12-31T21:15:38.022Z,11.5
2017-12-31T21:20:02.452Z,11.5
2017-12-31T21:25:30.570Z,11.5
2017-12-31T21:30:02.859Z,11.5
2017-12-31T21:35:21.009Z,11.7
2017-12-31T21:45:05.610Z,11.8
2017-12-31T21:55:08.145Z,11.9
2017-12-31T22:00:07.580Z,12
2017-12-31T22:10:15.077Z,12
2017-12-31T22:15:05.275Z,12
2017-12-31T22:20:05.207Z,11.9
2017-12-31T22:25:30.781Z,11.9
2017-12-31T22:30:10.611Z,11.9
2017-12-31T22:35:03.370Z,11.9
2017-12-31T22:40:38.554Z,12
2017-12-31T22:45:28.185Z,12
2017-12-31T22:50:37.877Z,12.1
2017-12-31T22:55:05.739Z,12
2017-12-31T23:00:13.210Z,12
2017-12-31T23:05:17.670Z,11.9
2017-12-31T23:10:02.429Z,11.9
2017-12-31T23:15:15.320Z,11.9
2017-12-31T23:30:02.991Z,11.9
2017-12-31T23:35:31.216Z,11.9
2017-12-31T23:45:31.090Z,11.8
2017-12-31T23:50:20.165Z,11.8
2017-12-31T23:55:20.660Z,11.8
